Whale Point, California Weather observations

Data are for observation ending at time listed.
 Day   Time    Ave.   Ave.  Ave.  Vector   Max.   Stn.    Total    Solar   Ave.  
  of    of     Air    Rel.  Wind   Wind    Wind   Baro.  Precip.   Rad.    Soil  
Year   Day     Temp.  Hum.  Speed  Dir.    Gust   Pres.                    Temp. 
2017   (PST)    F      %     mph   deg.    mph     mb.     in.     W/m2     F   
------------------------------------------------------------------------------
 146   12:40   57.4    76    3.8   233      6.0   995.6    0.00     725    64.4
 146   12:50   58.7    75    3.6   230      5.9   995.3    0.00     725    64.5
 146   13:00   58.4    74    3.5   226      5.7   995.3    0.00     682    64.6
 146   13:10   58.9    74    4.2   223      7.0   995.3    0.00     727    64.7
 146   13:20   59.9    73    4.0   221      6.8   995.3    0.00     754    64.8
 146   13:30   60.0    72    4.2   228      6.9   995.3    0.00     802    64.9
 146   13:40   59.5    72    4.1   229      7.5   995.3    0.00     808    65.0
 146   13:50   59.6    73    4.2   217      7.2   995.3    0.00     779    65.1
 146   14:00   60.4    72    4.6   234      7.9   995.3    0.00     886    65.3
 146   14:10   59.8    73    5.2   239      8.6   995.6    0.00     772    65.4
 146   14:20   59.5    73    5.2   230      8.5   995.6    0.00     793    65.5
 146   14:30   58.7    74    5.0   235      7.7   995.6    0.00     789    65.7
 146   14:40   59.5    72    4.2   231      7.7   995.6    0.00     611    65.8
 146   14:50   59.3    73    4.9   222      8.7   995.3    0.00     745    66.0
 146   15:00   59.2    73    5.2   232      8.1   995.3    0.00     732    66.2
 146   15:10   59.0    72    5.4   224      9.3   995.3    0.00     790    66.3
 146   15:20   58.8    73    5.2   229      8.1   995.3    0.00     681    66.5
 146   15:30   59.4    73    5.7   233      8.2   995.3    0.00     756    66.7
 146   15:40   60.7    73    5.7   232      8.8   995.3    0.00     883    66.8
 146   15:50   60.8    72    6.3   230      9.8   995.3    0.00     914    67.0
 146   16:00   60.7    72    6.2   228      9.1   995.3    0.00     828    67.1
 146   16:10   59.6    74    4.9   227      8.6   995.3    0.00     553    67.3
 146   16:20   60.6    71    3.8   237      7.4   995.3    0.00     474    67.4
 146   16:30   61.1    70    3.7   248      7.8   995.3    0.00     444    67.6
 146   16:40   59.7    72    3.2   265      7.5   995.3    0.00     417    67.8
 146   16:50   58.5    74    3.3   289      7.3   995.3    0.00     198    67.9
 146   17:00   58.1    76    4.5   280     10.2   995.3    0.00     146    68.1
 146   17:10   58.7    76    4.8   270      8.0   995.3    0.00     193    68.3
 146   17:20   58.5    76    4.3   298      7.8   995.3    0.00     309    68.4
 146   17:30   56.9    79    4.1   278      8.4   995.3    0.00     246    68.5
 146   17:40   56.8    80    2.7   289      8.1   995.3    0.00     297    68.7
 146   17:50   57.5    78    2.7   289      5.5   995.3    0.00     254    68.8
 146   18:00   58.0    77    2.8   283      5.8   995.3    0.00     216    68.8
 146   18:10   58.3    76    2.0   279      5.1   995.3    0.00     179    68.9
 146   18:20   57.6    76    2.6   231      5.8   995.3    0.00     143    69.0
 146   18:30   57.3    76    1.5   259      5.4   995.3    0.00      76    69.0
 146   18:40   55.9    78    1.2   274      4.3   995.3    0.00      44    69.1
 146   18:50   54.6    81    0.8   268      4.1   995.3    0.00      42    69.2
 146   19:00   54.2    81    1.2   295      3.3   995.3    0.00      31    69.2
 146   19:10   53.4    82    0.8   321      2.7   995.3    0.00      10    69.2
 146   19:20   53.0    83    0.1   336      1.3   995.3    0.00       4    69.2
 146   19:30   52.9    84    1.3   123      3.7   995.3    0.00       1    69.2
 146   19:40   52.6    85    1.8   129      2.9   995.3    0.00       0    69.2
 146   19:50   52.6    85    0.1    74      1.3   995.3    0.00       0    69.1
 146   20:00   52.6    85    0.0     0      0.0   995.6    0.00       0    69.1
 146   20:10   52.5    85    0.5    39      1.9   995.6    0.00       0    69.0
 146   20:20   52.5    85    0.2    76      1.4   995.6    0.00       0    68.9
 146   20:30   52.1    86    3.8    34      5.5   995.6    0.00       0    68.9
 146   20:40   52.0    87    3.9    40      5.1   995.9    0.00       0    68.8
 146   20:50   52.1    87    3.9    50      4.9   995.9    0.00       0    68.7
 146   21:00   51.7    87    2.7    50      4.5   995.9    0.00       0    68.6
 146   21:10   51.0    88    3.9    46      6.1   995.9    0.00       0    68.5
 146   21:20   51.7    87    2.5    69      5.0   995.9    0.00       0    68.4
 146   21:30   52.2    84    3.4    58      7.2   995.9    0.00       0    68.3
 146   21:40   52.6    82    2.6    55      6.3   996.3    0.00       0    68.2
 146   21:50   52.4    81    3.2    52      5.8   996.3    0.00       0    68.1
 146   22:00   52.2    81    2.5    81      5.1   996.3    0.00       0    68.0
 146   22:10   52.2    80    1.1    84      3.2   996.3    0.00       0    67.9
 146   22:20   52.1    80    1.0    68      2.6   996.3    0.00       0    67.8
 146   22:30   52.0    81    0.4    98      2.0   996.3    0.00       0    67.7
 146   22:40   51.8    81    1.5    70      3.8   996.3    0.00       0    67.5
 146   22:50   51.4    82    2.1    73      3.7   996.3    0.00       0    67.4
 146   23:00   51.4    82    2.2    76      4.2   996.3    0.00       0    67.3
 146   23:10   51.8    81    1.4    82      2.5   996.3    0.00       0    67.2
 146   23:20   51.4    81    1.4    88      3.3   996.3    0.00       0    67.1
 146   23:30   50.9    82    2.5    76      4.8   996.3    0.00       0    67.0
 146   23:40   50.8    82    4.2    77      6.8   996.3    0.00       0    66.8
 146   23:50   50.6    82    4.7    76      7.1   996.3    0.00       0    66.7
 147    0:00   50.8    82    3.6    80      7.1   995.9    0.00       0    66.6
 147    0:10   51.1    81    2.3    85      5.0   995.9    0.00       0    66.5
 147    0:20   50.9    81    1.8    86      4.2   995.9    0.00       0    66.4
 147    0:30   50.8    81    3.1    76      5.6   995.9    0.00       0    66.3
 147    0:40   50.7    81    3.7    82      5.9   995.9    0.00       0    66.2
 147    0:50   50.9    80    4.0    79      6.4   995.9    0.00       0    66.1
 147    1:00   50.6    81    3.9    74      6.4   995.9    0.00       0    65.9
 147    1:10   50.6    81    2.8    83      5.5   995.9    0.00       0    65.8
 147    1:20   50.6    81    2.2    85      5.1   995.9    0.00       0    65.7
 147    1:30   50.5    81    1.0    80      4.6   995.9    0.00       0    65.6
 147    1:40   50.4    81    2.4    86      5.8   995.9    0.00       0    65.5
 147    1:50   50.4    82    1.4   100      3.1   995.9    0.00       0    65.4
 147    2:00   50.2    82    2.2   126      3.7   995.9    0.00       0    65.3
 147    2:10   50.3    84    2.9   136      5.1   995.9    0.00       0    65.2
 147    2:20   50.2    85    2.0   131      4.2   995.9    0.00       0    65.1
 147    2:30   50.4    84    1.9    98      3.4   995.9    0.00       0    65.0
 147    2:40   50.1    82    3.5    74      6.1   995.9    0.00       0    64.9
 147    2:50   50.2    82    2.5    89      7.3   995.9    0.00       0    64.8
 147    3:00   50.0    82    1.5   136      3.1   995.9    0.00       0    64.7
 147    3:10   50.0    86    0.2    97      1.2   995.9    0.00       0    64.6
 147    3:20   50.1    86    0.1    67      0.9   995.9    0.00       0    64.5
 147    3:30   50.2    83    1.3    88      3.1   995.9    0.00       0    64.4
 147    3:40   50.5    82    0.9    97      2.4   995.9    0.00       0    64.3
 147    3:50   50.5    81    1.1    94      2.3   995.9    0.00       0    64.2
 147    4:00   50.5    82    1.5    69      3.5   995.9    0.00       0    64.1
 147    4:10   50.5    81    2.0    92      3.7   995.9    0.00       0    64.1
 147    4:20   50.8    80    1.6    85      3.4   995.9    0.00       0    64.0
 147    4:30   50.7    81    1.1    85      2.5   995.9    0.00       0    63.9
 147    4:40   50.4    81    2.5    75      4.6   995.9    0.00       0    63.8
 147    4:50   50.3    81    3.2    71      5.8   996.3    0.00       2    63.7
 147    5:00   50.6    81    2.9    80      5.0   996.3    0.00       5    63.6
 147    5:10   50.8    80    0.9    63      3.3   996.3    0.00       8    63.5
 147    5:20   50.0    82    0.6   120      2.2   996.3    0.00      12    63.4
 147    5:30   49.7    83    0.0    32      0.6   996.6    0.00      16    63.4
 147    5:40   49.5    84    0.1    54      1.0   996.6    0.00      19    63.3
 147    5:50   49.7    84    0.3    56      2.1   996.6    0.00      22    63.2
 147    6:00   50.1    83    0.6    60      1.7   997.0    0.00      24    63.1
 147    6:10   50.8    82    0.3    56      1.7   997.0    0.00      27    63.0
 147    6:20   51.2    81    0.5    34      2.3   997.0    0.00      29    63.0
 147    6:30   51.1    81    0.2   128      1.1   997.3    0.00      31    62.9
 147    6:40   51.1    81    0.6   127      1.2   997.3    0.00      33    62.8
 147    6:50   51.6    81    0.0     0      0.0   997.3    0.00     149    62.7
 147    7:00   54.5    77    0.2   151      1.7   997.3    0.00     387    62.6
 147    7:10   55.1    74    2.0   180      3.6   997.6    0.00     428    62.5
 147    7:20   53.7    78    2.2   178      3.3   997.6    0.00     477    62.4
 147    7:30   55.5    75    2.1   152      3.3   997.6    0.00     511    62.3
 147    7:40   56.2    73    2.3   166      3.3   997.6    0.00     541    62.3
 147    7:50   55.5    75    1.3   203      3.9   998.0    0.00     573    62.2
 147    8:00   55.2    76    1.6   206      2.6   998.0    0.00     606    62.2
 147    8:10   55.1    76    2.8   195      4.6   998.0    0.00     639    62.2
 147    8:20   54.7    77    3.0   197      4.2   998.0    0.00     671    62.2
 147    8:30   54.4    78    3.3   197      4.5   998.0    0.00     699    62.2
 147    8:40   55.1    77    3.4   191      5.0   998.3    0.00     728    62.2
 147    8:50   55.7    76    2.7   192      5.3   998.3    0.00     756    62.2
 147    9:00   55.8    75    2.6   213      5.6   998.3    0.00     783    62.2
 147    9:10   56.0    75    2.4   230      7.3   998.3    0.00     809    62.2
 147    9:20   55.9    75    2.5   253      6.6   998.3    0.00     835    62.2
 147    9:30   55.7    76    2.7   261      5.6   998.3    0.00     859    62.3
 147    9:40   56.0    74    5.1   277     10.5   998.3    0.00     882    62.3
 147    9:50   56.4    72    5.2   290     10.2   998.3    0.00     904    62.4
 147   10:00   56.5    71    5.5   279     10.5   998.3    0.00     924    62.5
 147   10:10   57.2    71    5.4   294      8.9   998.3    0.00     943    62.6
 147   10:20   57.6    70    5.3   294      8.6   998.6    0.00     960    62.7
 147   10:30   57.9    69    5.5   278     10.1   998.3    0.00     975    62.8
 147   10:40   58.0    69    5.2   277      9.9   998.3    0.00     989    62.9
 147   10:50   58.4    68    5.5   267      9.8   998.3    0.00    1001    63.0
 147   11:00   57.9    68    5.4   276     10.1   998.3    0.00    1012    63.2
 147   11:10   59.0    68    4.9   283     10.2   998.3    0.00    1022    63.3
 147   11:20   58.5    68    5.7   277     11.7   998.6    0.00    1028    63.5
 147   11:30   58.8    67    6.1   272     12.2   998.3    0.00    1035    63.6
 147   11:40   58.6    67    6.5   269     11.8   998.6    0.00    1041    63.8
 147   11:50   59.0    67    5.5   274      9.3   998.6    0.00    1045    63.9
 147   12:00   59.9    66    5.2   282     10.2   998.6    0.00    1047    64.1
 147   12:10   60.4    65    5.1   280     10.1   998.3    0.00    1046    64.2
 147   12:20   60.2    65    5.8   272     10.4   998.3    0.00    1044    64.4
 147   12:30   60.7    64    6.0   287     10.1   998.3    0.00    1040    64.6

Return to Whale Point graphs page.


Western Regional Climate Center,wrcc@dri.edu